Time;durP1;ratioP1;P1;durP2;ratioP2;P2;SDS_P1;SDS_P2;PMS_P1;PMS_P2;Temp;Humidity;BMP_temperature;BMP_pressure;BME280_temperature;BME280_humidity;BME280_pressure;Samples;Min_cycle;Max_cycle;Signal;HPM_P1;HPM_P2
2022/08/04 00:03:41;;;;;;;1.65;1.50;;;22.90;99.90;;;;;;20953037;28;20047;-79
2022/08/04 00:13:51;;;;;;;3.63;1.25;;;22.80;99.90;;;;;;20970487;28;20048;-81
2022/08/04 00:23:54;;;;;;;6.82;1.45;;;22.80;99.90;;;;;;20951923;28;20072;-79
2022/08/04 00:33:55;;;;;;;3.58;1.77;;;22.80;99.90;;;;;;20975765;28;20041;-80
2022/08/04 00:44:15;;;;;;;8.05;1.70;;;22.70;99.90;;;;;;20975094;28;20193;-81
2022/08/04 00:54:56;;;;;;;2.95;1.50;;;22.60;99.90;;;;;;20905188;28;20095;-81
2022/08/04 01:05:06;;;;;;;2.88;1.63;;;22.50;99.90;;;;;;20916217;28;20040;-80
2022/08/04 01:15:16;;;;;;;2.40;1.88;;;22.40;99.90;;;;;;20915481;28;20045;-81
2022/08/04 01:25:37;;;;;;;3.17;1.73;;;22.30;99.90;;;;;;20914757;28;20048;-81
2022/08/04 01:36:04;;;;;;;2.38;1.70;;;22.20;99.90;;;;;;20866646;28;20040;-80
2022/08/04 01:46:04;;;;;;;2.95;1.67;;;21.90;99.90;;;;;;20914299;28;20041;-80
2022/08/04 01:56:07;;;;;;;2.90;1.77;;;21.90;99.90;;;;;;20900756;28;20041;-80
2022/08/04 02:06:26;;;;;;;2.42;1.80;;;21.70;99.90;;;;;;20913042;28;20052;-80
2022/08/04 02:16:46;;;;;;;3.17;1.75;;;21.40;99.90;;;;;;20915238;28;20049;-81
2022/08/04 02:26:49;;;;;;;3.65;2.10;;;21.30;99.90;;;;;;20927291;28;20040;-81
2022/08/04 02:36:51;;;;;;;5.28;1.85;;;21.20;99.90;;;;;;20908620;28;20586;-80
2022/08/04 02:46:53;;;;;;;3.22;2.05;;;21.10;99.90;;;;;;20907739;28;20051;-80
2022/08/04 02:56:56;;;;;;;2.78;2.15;;;20.90;99.90;;;;;;20907995;28;20131;-80
2022/08/04 03:07:39;;;;;;;14.18;2.13;;;20.60;99.90;;;;;;20925727;28;20491;-80
2022/08/04 03:18:09;;;;;;;6.40;2.50;;;20.60;99.90;;;;;;20887876;28;20107;-80
2022/08/04 03:28:24;;;;;;;3.42;1.80;;;20.60;99.90;;;;;;20906522;28;20407;-76
2022/08/04 03:39:06;;;;;;;2.78;1.98;;;20.60;99.90;;;;;;20918610;28;20037;-79
2022/08/04 03:49:12;;;;;;;3.33;2.33;;;20.60;99.90;;;;;;20847843;28;20037;-79
2022/08/04 03:59:22;;;;;;;3.58;2.25;;;20.30;99.90;;;;;;20921170;28;20032;-79
2022/08/04 04:09:45;;;;;;;4.70;2.42;;;20.30;99.90;;;;;;20975409;28;20037;-81
2022/08/04 04:20:34;;;;;;;4.38;2.47;;;20.10;99.90;;;;;;20971854;28;20040;-80
2022/08/04 04:30:53;;;;;;;2.90;2.20;;;20.00;99.90;;;;;;20927970;28;20462;-77
2022/08/04 04:41:05;;;;;;;4.93;2.40;;;20.00;99.90;;;;;;21002325;28;20063;-80
2022/08/04 04:51:27;;;;;;;4.72;2.00;;;20.00;99.90;;;;;;20992896;28;20075;-79
2022/08/04 05:02:00;;;;;;;2.38;1.98;;;19.90;99.90;;;;;;20989685;28;20051;-77
2022/08/04 05:12:33;;;;;;;4.20;2.22;;;20.20;99.90;;;;;;20960009;28;20052;-78
2022/08/04 05:22:42;;;;;;;3.42;2.30;;;20.60;99.90;;;;;;20991019;28;20048;-78
2022/08/04 05:32:57;;;;;;;3.75;2.40;;;20.60;99.90;;;;;;21001987;28;20090;-77
2022/08/04 05:43:00;;;;;;;3.25;2.40;;;21.10;99.90;;;;;;20998329;28;20518;-79
2022/08/04 05:53:02;;;;;;;5.28;2.50;;;21.50;99.90;;;;;;20981771;28;20565;-79
2022/08/04 06:03:04;;;;;;;6.55;2.53;;;21.70;99.90;;;;;;21002217;28;20047;-79
2022/08/04 06:13:09;;;;;;;4.80;2.70;;;21.80;99.90;;;;;;20982979;28;20052;-79
2022/08/04 06:23:15;;;;;;;6.72;2.28;;;22.00;99.90;;;;;;21000191;28;20041;-80
2022/08/04 06:33:32;;;;;;;3.78;2.72;;;22.50;99.90;;;;;;20981586;28;20106;-80
2022/08/04 06:43:33;;;;;;;3.88;2.70;;;23.30;99.90;;;;;;21014705;22;20033;-80
2022/08/04 06:53:34;;;;;;;6.28;2.40;;;23.70;99.90;;;;;;21036778;23;20044;-78
2022/08/04 07:03:36;;;;;;;3.85;2.33;;;23.90;99.90;;;;;;21037116;28;20403;-78
2022/08/04 07:13:37;;;;;;;3.03;2.20;;;25.10;99.90;;;;;;21035021;28;20139;-79
2022/08/04 07:23:38;;;;;;;3.90;2.58;;;25.20;99.90;;;;;;21000445;28;20507;-77
2022/08/04 07:33:41;;;;;;;6.40;2.28;;;26.10;99.90;;;;;;20882553;28;20100;-78
2022/08/04 07:43:42;;;;;;;6.22;2.75;;;27.20;99.90;;;;;;20833411;28;20045;-77
2022/08/04 07:53:44;;;;;;;10.50;2.20;;;28.10;99.90;;;;;;20839271;28;20044;-78
2022/08/04 08:03:46;;;;;;;6.90;2.40;;;28.30;99.90;;;;;;20849903;28;20445;-78
2022/08/04 08:13:48;;;;;;;9.50;2.50;;;29.30;99.90;;;;;;20847427;28;20205;-78
2022/08/04 08:23:49;;;;;;;8.57;2.42;;;30.00;99.90;;;;;;20840059;28;20050;-76
2022/08/04 08:33:52;;;;;;;4.50;2.38;;;30.10;99.90;;;;;;20845647;28;20041;-77
2022/08/04 08:44:14;;;;;;;8.05;1.95;;;30.90;99.90;;;;;;20837677;28;20048;-75
2022/08/04 08:54:46;;;;;;;5.57;2.30;;;32.10;99.90;;;;;;20832794;28;20049;-75
2022/08/04 09:05:08;;;;;;;2.72;2.10;;;32.90;99.90;;;;;;20833366;28;20045;-75
2022/08/04 09:15:35;;;;;;;5.03;2.10;;;32.60;99.90;;;;;;20827411;28;20052;-75
2022/08/04 09:26:07;;;;;;;3.83;1.95;;;32.70;99.90;;;;;;20804290;28;20048;-75
2022/08/04 09:36:15;;;;;;;8.38;1.55;;;33.80;99.90;;;;;;20825993;28;20041;-75
2022/08/04 09:46:38;;;;;;;5.43;1.08;;;33.20;97.70;;;;;;20825194;28;20122;-75
2022/08/04 09:56:49;;;;;;;2.47;1.10;;;33.40;96.20;;;;;;20824866;28;20409;-74
2022/08/04 10:07:06;;;;;;;13.90;1.88;;;34.10;94.10;;;;;;20826523;28;20045;-74
2022/08/04 10:17:26;;;;;;;0.90;0.73;;;34.10;93.50;;;;;;20876681;28;20108;-74
2022/08/04 10:27:44;;;;;;;1.40;1.03;;;34.40;91.50;;;;;;20922396;28;20103;-73
2022/08/04 10:38:09;;;;;;;4.63;1.52;;;35.10;91.60;;;;;;20921970;28;20388;-74
2022/08/04 10:48:37;;;;;;;1.25;0.70;;;35.30;90.60;;;;;;20920972;28;20043;-73
2022/08/04 10:58:45;;;;;;;3.42;0.70;;;36.10;86.10;;;;;;20920514;28;20049;-73
2022/08/04 11:08:53;;;;;;;1.23;0.73;;;35.90;83.80;;;;;;20919356;28;20040;-73
2022/08/04 11:19:19;;;;;;;0.60;0.60;;;35.70;81.70;;;;;;20919005;28;20387;-73
2022/08/04 11:29:44;;;;;;;3.75;1.23;;;36.70;81.00;;;;;;20923752;28;20064;-74
2022/08/04 11:39:52;;;;;;;4.30;0.80;;;36.50;80.00;;;;;;20917721;28;20178;-77
2022/08/04 11:50:08;;;;;;;3.30;0.85;;;36.70;78.50;;;;;;20915948;28;20056;-76
2022/08/04 12:00:13;;;;;;;1.30;0.60;;;36.30;79.80;;;;;;20906889;28;20045;-76
2022/08/04 12:10:29;;;;;;;1.00;0.90;;;36.90;80.80;;;;;;20914653;28;20499;-76
2022/08/04 12:20:35;;;;;;;2.80;1.20;;;37.30;78.70;;;;;;20912352;28;20103;-76
2022/08/04 12:30:44;;;;;;;3.97;0.85;;;36.60;77.90;;;;;;20913107;28;20041;-76
2022/08/04 12:40:48;;;;;;;;;;;37.00;77.80;;;;;;20913508;28;20052;-76
2022/08/04 12:50:52;;;;;;;4.88;1.00;;;37.00;73.90;;;;;;21041687;22;19982;-78
2022/08/04 13:00:59;;;;;;;1.85;0.80;;;37.10;75.20;;;;;;21076884;28;20032;-80
2022/08/04 13:11:00;;;;;;;1.48;1.00;;;38.00;73.30;;;;;;21097731;28;20040;-79
2022/08/04 13:21:22;;;;;;;2.53;1.00;;;38.10;75.20;;;;;;21079379;28;20047;-81
2022/08/04 13:31:26;;;;;;;2.03;1.00;;;38.50;75.30;;;;;;20983027;28;21519;-81
2022/08/04 13:41:29;;;;;;;1.15;0.82;;;37.30;74.00;;;;;;20976970;28;20043;-81
2022/08/04 13:51:31;;;;;;;4.25;1.10;;;38.00;74.90;;;;;;20975548;28;20071;-80
2022/08/04 14:01:35;;;;;;;2.92;1.00;;;37.20;74.60;;;;;;20993201;28;20037;-81
2022/08/04 14:11:38;;;;;;;2.25;0.90;;;37.20;73.40;;;;;;20962323;28;20043;-80
2022/08/04 14:21:39;;;;;;;3.17;0.98;;;37.90;72.40;;;;;;21005513;28;20071;-81
2022/08/04 14:31:41;;;;;;;1.23;0.77;;;37.90;73.20;;;;;;20953663;28;20029;-81
2022/08/04 14:41:48;;;;;;;2.25;0.80;;;37.70;73.00;;;;;;20957437;28;20036;-81
2022/08/04 14:51:54;;;;;;;0.95;0.80;;;38.20;70.00;;;;;;20926561;28;20124;-81
2022/08/04 15:01:56;;;;;;;1.15;0.90;;;37.90;71.10;;;;;;20972653;28;20056;-79
2022/08/04 15:11:56;;;;;;;1.42;0.90;;;37.30;72.70;;;;;;21027963;28;20048;-78
2022/08/04 15:21:58;;;;;;;2.87;0.97;;;37.60;72.40;;;;;;20959145;28;20099;-78
2022/08/04 15:32:02;;;;;;;2.80;1.35;;;36.80;70.80;;;;;;20945099;28;20366;-79
2022/08/04 15:42:20;;;;;;;1.67;1.05;;;37.20;71.40;;;;;;20963260;28;20759;-79
2022/08/04 15:52:21;;;;;;;2.58;0.90;;;37.30;71.10;;;;;;20979884;28;20097;-78
2022/08/04 16:02:35;;;;;;;1.00;0.70;;;37.20;71.90;;;;;;20978930;28;20663;-79
2022/08/04 16:12:56;;;;;;;0.82;0.65;;;36.70;71.60;;;;;;20977284;28;20036;-78
2022/08/04 16:23:04;;;;;;;3.05;1.00;;;36.50;71.10;;;;;;20977842;28;20048;-77
2022/08/04 16:33:07;;;;;;;2.87;0.93;;;36.30;69.70;;;;;;20959872;28;20536;-78
2022/08/04 16:43:16;;;;;;;6.35;0.98;;;35.90;70.50;;;;;;20958119;28;20052;-78
2022/08/04 16:53:19;;;;;;;1.37;0.90;;;35.60;71.20;;;;;;20957842;28;20514;-78
2022/08/04 17:03:20;;;;;;;1.58;1.10;;;35.20;73.00;;;;;;20974218;28;20458;-79
2022/08/04 17:13:24;;;;;;;1.65;1.00;;;35.20;72.90;;;;;;20995274;28;20410;-79
2022/08/04 17:23:41;;;;;;;5.70;1.20;;;35.40;74.30;;;;;;20982693;28;20052;-77
2022/08/04 17:33:47;;;;;;;5.75;0.95;;;35.30;74.90;;;;;;20971072;28;20082;-79
2022/08/04 17:43:49;;;;;;;12.60;1.00;;;34.90;74.90;;;;;;20971531;28;20592;-78
2022/08/04 17:53:57;;;;;;;3.10;1.20;;;33.80;81.70;;;;;;20970094;28;20110;-78
2022/08/04 18:03:58;;;;;;;2.67;0.90;;;32.80;83.40;;;;;;20956403;28;20049;-79
2022/08/04 18:14:00;;;;;;;11.27;1.65;;;31.90;83.50;;;;;;20962769;28;20041;-77
2022/08/04 18:24:01;;;;;;;6.60;1.77;;;31.20;83.70;;;;;;20969362;28;20037;-77
2022/08/04 18:34:06;;;;;;;9.88;3.88;;;30.50;82.70;;;;;;20952389;28;20047;-76
2022/08/04 18:44:07;;;;;;;3.00;1.75;;;30.50;82.20;;;;;;20980969;28;20763;-76
2022/08/04 18:54:08;;;;;;;8.48;1.40;;;30.50;84.80;;;;;;20957471;22;20135;-78
2022/08/04 19:04:10;;;;;;;2.80;1.35;;;29.40;86.10;;;;;;20995301;28;20045;-81
2022/08/04 19:14:10;;;;;;;5.68;1.50;;;28.90;88.70;;;;;;20999871;28;20036;-80
2022/08/04 19:24:12;;;;;;;4.65;1.50;;;28.00;89.80;;;;;;20968119;28;20043;-79
2022/08/04 19:34:13;;;;;;;4.45;2.00;;;27.80;90.00;;;;;;20970186;28;20098;-77
2022/08/04 19:44:14;;;;;;;4.78;1.80;;;27.50;90.40;;;;;;20971191;28;20029;-79
2022/08/04 19:54:15;;;;;;;3.15;1.42;;;27.20;90.90;;;;;;20970896;28;20506;-80
2022/08/04 20:04:16;;;;;;;4.85;1.50;;;26.80;91.10;;;;;;20970626;28;20108;-79
2022/08/04 20:14:16;;;;;;;3.00;1.85;;;26.60;91.90;;;;;;20968006;28;20090;-79
2022/08/04 20:24:17;;;;;;;2.60;1.58;;;26.30;92.80;;;;;;20973239;28;20166;-79
2022/08/04 20:34:18;;;;;;;4.72;1.65;;;26.00;93.00;;;;;;20968666;28;20390;-79
2022/08/04 20:44:19;;;;;;;4.18;1.77;;;25.40;93.50;;;;;;20970645;28;20379;-76
2022/08/04 20:54:19;;;;;;;;;;;25.30;94.00;;;;;;20980865;28;20102;-78
2022/08/04 21:04:30;;;;;;;2.77;1.80;;;25.40;93.80;;;;;;21003107;28;19913;-76
2022/08/04 21:14:33;;;;;;;3.78;1.45;;;25.10;94.00;;;;;;20986634;28;20132;-78
2022/08/04 21:24:35;;;;;;;7.45;1.88;;;24.70;94.50;;;;;;20961429;28;20037;-82
2022/08/04 21:34:36;;;;;;;8.13;1.63;;;24.60;95.00;;;;;;20957258;28;20083;-80
2022/08/04 21:44:37;;;;;;;4.13;1.83;;;24.50;94.50;;;;;;20964413;28;20511;-79
2022/08/04 21:54:37;;;;;;;;;;;24.20;96.00;;;;;;20996106;28;20249;-79
2022/08/04 22:04:38;;;;;;;4.10;1.97;;;24.70;95.90;;;;;;21007276;28;20020;-80
2022/08/04 22:14:39;;;;;;;;;;;24.60;95.90;;;;;;21015774;28;20433;-78
2022/08/04 22:24:40;;;;;;;3.78;1.73;;;23.90;97.20;;;;;;21024357;28;19974;-79
2022/08/04 22:34:41;;;;;;;5.60;2.07;;;23.70;97.30;;;;;;21027025;28;20033;-80
2022/08/04 22:44:42;;;;;;;4.00;2.07;;;23.30;98.70;;;;;;21020177;28;20176;-78
2022/08/04 22:54:43;;;;;;;;;;;23.00;99.70;;;;;;21022730;28;20056;-79
2022/08/04 23:04:43;;;;;;;3.17;1.87;;;22.90;99.30;;;;;;21023710;28;20017;-79
2022/08/04 23:14:45;;;;;;;3.10;1.90;;;22.80;99.80;;;;;;21024312;28;20398;-80
2022/08/04 23:24:45;;;;;;;6.85;1.90;;;22.70;99.90;;;;;;21025001;28;20037;-80
2022/08/04 23:34:46;;;;;;;2.07;1.87;;;22.90;99.90;;;;;;21021178;28;20071;-78
2022/08/04 23:44:48;;;;;;;4.93;2.20;;;22.40;99.90;;;;;;21017543;28;20040;-78
2022/08/04 23:54:50;;;;;;;2.50;1.98;;;22.30;99.90;;;;;;21019511;28;20102;-78
